Time;durP1;ratioP1;P1;durP2;ratioP2;P2;SDS_P1;SDS_P2;PMS_P1;PMS_P2;Temp;Humidity;BMP_temperature;BMP_pressure;BME280_temperature;BME280_humidity;BME280_pressure;Samples;Min_cycle;Max_cycle;Signal;HPM_P1;HPM_P2
2022/09/24 00:01:17;;;;;;;14.90;6.37;;;;;;;9.32;74.27;100522.77;124838;1098;103569;-74
2022/09/24 00:03:53;;;;;;;15.27;6.73;;;;;;;9.30;73.79;100513.05;124943;1099;104283;-74
2022/09/24 00:06:26;;;;;;;13.68;6.45;;;;;;;9.26;74.44;100514.66;124769;1099;102805;-75
2022/09/24 00:08:58;;;;;;;12.50;6.43;;;;;;;9.25;74.00;100511.97;124784;1099;104404;-74
2022/09/24 00:11:31;;;;;;;15.23;6.43;;;;;;;9.22;74.51;100510.11;124823;1099;102544;-74
2022/09/24 00:14:02;;;;;;;13.67;6.53;;;;;;;9.19;73.98;100509.98;124920;1099;104236;-74
2022/09/24 00:16:34;;;;;;;13.50;6.57;;;;;;;9.16;74.04;100495.06;124855;1099;104211;-74
2022/09/24 00:19:05;;;;;;;16.23;7.20;;;;;;;9.15;74.96;100503.73;124762;1099;104214;-75
2022/09/24 00:21:37;;;;;;;15.23;6.63;;;;;;;9.11;74.31;100504.42;124881;1098;104281;-74
2022/09/24 00:26:48;;;;;;;13.23;7.03;;;;;;;9.08;74.32;100500.80;124786;1099;104176;-74
2022/09/24 00:27:06;;;;;;;13.90;6.47;;;;;;;9.06;74.24;100502.47;124863;1099;104236;-75
2022/09/24 00:29:37;;;;;;;17.07;7.20;;;;;;;9.04;74.99;100499.78;124785;1099;104165;-74
2022/09/24 00:32:09;;;;;;;17.17;7.47;;;;;;;9.03;75.23;100504.95;124838;1099;104285;-74
2022/09/24 00:34:40;;;;;;;14.77;6.93;;;;;;;9.00;75.03;100505.71;124798;1099;102934;-74
2022/09/24 00:37:11;;;;;;;14.73;7.67;;;;;;;8.97;74.87;100503.84;124809;1099;103758;-75
2022/09/24 00:39:42;;;;;;;15.87;7.90;;;;;;;8.97;75.68;100508.20;124851;1099;104198;-74
2022/09/24 00:42:14;;;;;;;15.57;7.57;;;;;;;8.94;75.26;100505.45;124848;1099;104204;-74
2022/09/24 00:44:53;;;;;;;15.73;7.73;;;;;;;8.91;75.74;100511.47;124872;1099;104185;-74
2022/09/24 00:47:33;;;;;;;15.30;7.70;;;;;;;8.88;76.13;100505.19;124802;1099;104206;-74
2022/09/24 00:50:14;;;;;;;16.83;7.67;;;;;;;8.84;75.92;100501.56;124858;1099;104198;-74
2022/09/24 00:52:50;;;;;;;14.67;7.03;;;;;;;8.82;76.25;100508.46;124765;1099;104274;-74
2022/09/24 00:55:23;;;;;;;16.90;7.77;;;;;;;8.80;75.80;100505.78;124790;1099;104248;-74
2022/09/24 00:57:58;;;;;;;18.42;7.62;;;;;;;8.77;75.99;100497.80;124836;1099;104198;-74
2022/09/24 01:00:30;;;;;;;16.20;7.17;;;;;;;8.75;76.08;100502.05;124799;1099;102130;-74
2022/09/24 01:03:05;;;;;;;17.20;7.85;;;;;;;8.72;76.08;100501.03;124675;1099;102826;-74
2022/09/24 01:05:38;;;;;;;15.60;7.30;;;;;;;8.70;76.71;100502.70;124854;1099;104197;-74
2022/09/24 01:08:13;;;;;;;16.33;7.63;;;;;;;8.68;75.85;100493.87;124795;1099;102283;-74
2022/09/24 01:11:01;;;;;;;16.07;7.10;;;;;;;8.68;76.50;100493.87;124889;1099;104169;-74
2022/09/24 01:13:48;;;;;;;14.73;6.93;;;;;;;8.66;75.78;100495.53;124788;1099;104327;-74
2022/09/24 01:16:28;;;;;;;15.17;7.40;;;;;;;8.63;76.30;100497.20;124794;1099;104166;-74
2022/09/24 01:19:08;;;;;;;17.33;7.87;;;;;;;8.61;76.23;100506.68;124868;1099;104198;-74
2022/09/24 01:21:48;;;;;;;16.73;7.63;;;;;;;8.60;76.55;100509.23;124787;1099;104211;-74
2022/09/24 01:24:37;;;;;;;18.30;8.93;;;;;;;8.56;76.80;100510.83;124912;1098;104242;-74
2022/09/24 01:27:16;;;;;;;19.53;9.17;;;;;;;8.53;76.74;100509.81;124821;1099;102993;-75
2022/09/24 01:29:58;;;;;;;16.87;8.17;;;;;;;8.51;76.69;100511.44;124794;1099;104428;-75
2022/09/24 01:32:36;;;;;;;15.83;7.37;;;;;;;8.50;76.94;100510.55;124863;1099;104201;-74
2022/09/24 01:35:14;;;;;;;16.45;7.70;;;;;;;8.49;77.02;100503.52;124773;1099;104267;-74
2022/09/24 01:37:49;;;;;;;15.67;7.23;;;;;;;8.48;76.67;100509.60;124866;1099;104172;-74
2022/09/24 01:40:24;;;;;;;18.03;7.17;;;;;;;8.47;76.81;100507.80;124847;1099;104191;-75
2022/09/24 01:42:57;;;;;;;16.43;7.53;;;;;;;8.47;77.12;100514.77;124723;1099;104399;-74
2022/09/24 01:45:30;;;;;;;15.17;7.60;;;;;;;8.46;77.19;100506.00;124853;1099;102740;-74
2022/09/24 01:48:04;;;;;;;17.80;7.57;;;;;;;8.45;76.91;100507.73;124790;1099;104175;-74
2022/09/24 01:50:42;;;;;;;16.05;7.37;;;;;;;8.45;76.86;100506.85;124803;1099;102252;-74
2022/09/24 01:53:20;;;;;;;16.47;7.13;;;;;;;8.44;77.41;100511.16;124783;1099;104264;-74
2022/09/24 01:55:58;;;;;;;15.57;7.23;;;;;;;8.42;77.37;100512.80;124820;1099;102951;-74
2022/09/24 01:58:34;;;;;;;16.27;7.37;;;;;;;8.41;77.28;100516.26;124838;1099;103623;-74
2022/09/24 02:01:11;;;;;;;14.87;6.77;;;;;;;8.39;77.47;100512.66;124698;1099;104236;-74
2022/09/24 02:03:46;;;;;;;16.43;7.00;;;;;;;8.38;76.76;100526.58;124819;1099;104179;-74
2022/09/24 02:06:23;;;;;;;15.83;6.93;;;;;;;8.37;77.00;100513.44;124850;1099;104238;-74
2022/09/24 02:08:59;;;;;;;16.13;6.60;;;;;;;8.37;76.94;100516.94;124797;1098;104189;-75
2022/09/24 02:11:33;;;;;;;16.20;7.47;;;;;;;8.41;77.37;100524.10;124879;1099;104269;-74
2022/09/24 02:14:06;;;;;;;;;;;;;;;8.41;77.50;100523.19;124879;1099;104357;-74
2022/09/24 02:16:44;;;;;;;15.60;7.40;;;;;;;8.43;77.32;100524.14;124860;1099;102171;-75
2022/09/24 02:19:19;;;;;;;17.07;7.70;;;;;;;8.45;77.72;100523.42;124867;1098;104373;-74
2022/09/24 02:21:52;;;;;;;14.80;7.30;;;;;;;8.44;77.23;100523.36;124775;1099;104182;-74
2022/09/24 02:24:30;;;;;;;15.53;6.83;;;;;;;8.44;77.80;100520.74;124856;1099;104204;-75
2022/09/24 02:27:01;;;;;;;15.17;7.17;;;;;;;8.42;77.15;100519.75;124888;1099;104175;-75
2022/09/24 02:29:33;;;;;;;16.30;7.20;;;;;;;8.42;77.43;100518.02;124838;1099;104242;-74
2022/09/24 02:32:06;;;;;;;16.37;7.70;;;;;;;8.41;77.87;100515.34;124809;1099;102862;-75
2022/09/24 02:34:41;;;;;;;16.20;7.83;;;;;;;8.38;77.96;100521.35;124810;1099;104255;-74
2022/09/24 02:37:14;;;;;;;15.00;6.97;;;;;;;8.35;77.85;100521.21;124883;1099;104245;-74
2022/09/24 02:39:47;;;;;;;15.80;7.50;;;;;;;8.33;77.54;100517.61;124916;1098;102865;-75
2022/09/24 02:42:21;;;;;;;19.45;7.58;;;;;;;8.32;77.86;100520.16;124791;1099;104303;-75
2022/09/24 02:44:56;;;;;;;17.10;7.55;;;;;;;8.28;77.89;100517.41;124877;1099;104619;-74
2022/09/24 02:47:28;;;;;;;16.03;7.63;;;;;;;8.27;77.67;100519.95;124852;1099;104400;-75
2022/09/24 02:50:00;;;;;;;16.50;7.63;;;;;;;8.25;78.14;100532.95;124843;1099;104300;-74
2022/09/24 02:52:31;;;;;;;16.73;7.80;;;;;;;8.23;78.24;100529.38;124771;1099;104204;-74
2022/09/24 02:55:03;;;;;;;16.23;7.30;;;;;;;8.21;78.39;100532.73;124875;1099;104331;-74
2022/09/24 02:57:34;;;;;;;14.90;6.97;;;;;;;8.18;77.96;100532.59;124795;1099;104237;-74
2022/09/24 03:00:07;;;;;;;18.17;8.03;;;;;;;8.13;78.20;100541.95;124746;1099;102771;-74
2022/09/24 03:02:38;;;;;;;15.80;7.33;;;;;;;8.09;78.35;100535.70;124815;1099;102709;-74
2022/09/24 03:05:11;;;;;;;15.23;8.00;;;;;;;8.05;78.72;100532.03;124778;1099;104201;-73
2022/09/24 03:07:42;;;;;;;16.93;7.70;;;;;;;8.01;78.87;100535.34;124900;1098;104172;-74
2022/09/24 03:10:13;;;;;;;17.33;7.63;;;;;;;7.97;78.50;100532.52;124753;1099;104625;-74
2022/09/24 03:12:45;;;;;;;17.43;7.57;;;;;;;7.95;78.25;100545.52;124728;1099;104153;-74
2022/09/24 03:15:17;;;;;;;17.43;7.83;;;;;;;7.93;78.51;100541.91;124797;1099;101860;-74
2022/09/24 03:17:48;;;;;;;16.93;8.03;;;;;;;7.91;78.89;100541.84;124825;1099;104165;-74
2022/09/24 03:20:19;;;;;;;21.13;8.87;;;;;;;7.89;78.22;100546.11;124833;1099;102963;-74
2022/09/24 03:22:53;;;;;;;20.27;9.87;;;;;;;7.89;78.63;100543.49;124766;1099;104348;-75
2022/09/24 03:25:25;;;;;;;19.05;9.95;;;;;;;7.88;78.74;100541.73;124815;1099;104162;-75
2022/09/24 03:27:56;;;;;;;20.10;10.63;;;;;;;7.89;78.66;100550.45;124980;1099;104248;-74
2022/09/24 03:33:17;;;;;;;21.75;10.90;;;;;;;7.88;78.59;100539.11;124927;1099;104201;-74
2022/09/24 03:35:48;;;;;;;21.77;11.10;;;;;;;7.89;78.63;100540.88;124914;1099;102913;-74
2022/09/24 03:38:19;;;;;;;22.83;12.13;;;;;;;7.91;78.63;100548.80;124952;1099;102431;-75
2022/09/24 03:40:50;;;;;;;20.60;10.40;;;;;;;7.95;78.97;100547.20;124965;1098;104226;-74
2022/09/24 03:43:22;;;;;;;20.60;11.10;;;;;;;7.96;78.59;100544.66;124828;1099;104176;-75
2022/09/24 03:45:54;;;;;;;21.43;11.30;;;;;;;7.96;78.80;100546.39;124841;1099;104198;-74
2022/09/24 03:48:26;;;;;;;22.37;12.00;;;;;;;7.94;78.93;100541.09;124906;1099;103568;-74
2022/09/24 03:51:03;;;;;;;21.80;12.10;;;;;;;7.94;79.27;100548.05;124768;1099;104188;-74
2022/09/24 03:53:35;;;;;;;23.43;13.03;;;;;;;7.96;79.21;100546.39;124789;1099;101800;-74
2022/09/24 03:56:08;;;;;;;25.03;13.40;;;;;;;7.98;78.99;100547.35;124820;1098;104345;-74
2022/09/24 03:58:40;;;;;;;22.82;11.63;;;;;;;7.99;79.52;100547.42;124878;1098;104456;-74
2022/09/24 04:01:13;;;;;;;20.67;10.30;;;;;;;7.99;79.40;100547.42;124888;1099;104262;-75
2022/09/24 04:03:44;;;;;;;23.60;11.33;;;;;;;8.02;79.31;100546.69;124990;1099;104051;-75
2022/09/24 04:06:15;;;;;;;19.97;10.43;;;;;;;8.05;79.53;100550.33;124898;1098;104622;-75
2022/09/24 04:08:46;;;;;;;22.40;9.67;;;;;;;8.05;79.70;100544.22;124828;1098;102846;-74
2022/09/24 04:11:18;;;;;;;18.97;9.40;;;;;;;8.04;79.17;100556.40;124872;1099;102778;-75
2022/09/24 04:13:49;;;;;;;19.40;9.53;;;;;;;8.05;79.24;100552.05;124860;1098;104166;-74
2022/09/24 04:16:20;;;;;;;20.07;9.77;;;;;;;8.06;79.32;100548.63;124833;1099;104291;-74
2022/09/24 04:18:52;;;;;;;19.40;9.83;;;;;;;8.07;79.40;100548.70;124839;1099;104265;-74
2022/09/24 04:21:24;;;;;;;21.43;9.70;;;;;;;8.09;79.52;100564.45;124884;1099;102489;-74
2022/09/24 04:23:55;;;;;;;20.43;9.50;;;;;;;8.08;79.62;100549.58;124841;1099;102781;-74
2022/09/24 04:26:26;;;;;;;15.90;8.10;;;;;;;8.09;79.51;100559.23;124739;1099;104485;-74
2022/09/24 04:28:57;;;;;;;18.70;8.97;;;;;;;8.10;79.63;100556.69;124897;1099;102759;-74
2022/09/24 04:31:31;;;;;;;20.77;8.43;;;;;;;8.12;79.70;100559.37;124814;1099;104496;-74
2022/09/24 04:34:03;;;;;;;19.13;8.67;;;;;;;8.19;79.75;100558.81;124800;1098;104166;-74
2022/09/24 04:36:34;;;;;;;18.03;8.60;;;;;;;8.24;80.19;100551.17;124822;1099;104172;-74
2022/09/24 04:39:05;;;;;;;20.97;8.23;;;;;;;8.27;80.22;100553.94;124724;1099;104227;-75
2022/09/24 04:41:38;;;;;;;17.87;8.23;;;;;;;8.30;79.73;100559.30;124723;1099;102800;-74
2022/09/24 04:44:12;;;;;;;18.27;8.47;;;;;;;8.34;80.00;100560.36;124773;1099;104235;-75
2022/09/24 04:46:43;;;;;;;16.82;7.95;;;;;;;8.42;80.12;100566.83;124866;1098;104230;-75
2022/09/24 04:49:14;;;;;;;16.07;7.97;;;;;;;8.50;80.00;100565.48;124852;1099;104233;-75
2022/09/24 04:51:46;;;;;;;21.47;8.40;;;;;;;8.55;80.12;100561.34;124825;1099;104688;-75
2022/09/24 04:54:17;;;;;;;19.77;7.93;;;;;;;8.58;80.15;100561.47;124779;1098;104194;-74
2022/09/24 04:56:48;;;;;;;20.07;7.77;;;;;;;8.61;80.52;100566.84;124854;1099;102863;-74
2022/09/24 04:59:19;;;;;;;17.93;7.67;;;;;;;8.60;80.48;100559.84;124813;1099;102852;-74
2022/09/24 05:01:53;;;;;;;18.95;7.75;;;;;;;8.63;80.34;100569.52;124961;1099;104245;-74
2022/09/24 05:04:25;;;;;;;19.50;8.23;;;;;;;8.68;80.53;100559.27;124891;1099;101913;-75
2022/09/24 05:06:56;;;;;;;17.70;7.60;;;;;;;8.72;80.46;100563.82;124878;1099;102307;-75
2022/09/24 05:09:29;;;;;;;15.57;7.70;;;;;;;8.76;80.23;100565.75;124863;1099;102995;-75
2022/09/24 05:12:00;;;;;;;17.10;7.67;;;;;;;8.79;80.46;100568.51;124891;1099;102120;-74
2022/09/24 05:14:31;;;;;;;17.27;7.80;;;;;;;8.83;80.17;100566.91;124845;1099;104198;-74
2022/09/24 05:17:03;;;;;;;16.57;7.73;;;;;;;8.86;80.43;100572.28;124841;1099;104330;-74
2022/09/24 05:19:34;;;;;;;18.23;7.17;;;;;;;8.89;80.94;100572.41;124821;1099;102321;-75
2022/09/24 05:22:05;;;;;;;16.50;7.63;;;;;;;8.92;80.21;100583.02;124851;1098;104245;-75
2022/09/24 05:24:37;;;;;;;16.80;7.93;;;;;;;8.98;80.91;100575.43;124904;1099;104381;-75
2022/09/24 05:27:11;;;;;;;17.37;7.80;;;;;;;9.02;80.21;100582.56;124822;1099;104201;-75
2022/09/24 05:29:43;;;;;;;15.57;7.57;;;;;;;9.06;80.30;100581.00;124844;1098;104658;-75
2022/09/24 05:32:17;;;;;;;19.20;7.47;;;;;;;9.07;80.77;100591.53;124797;1099;104322;-74
2022/09/24 05:34:49;;;;;;;16.93;6.92;;;;;;;9.09;80.95;100584.62;124404;1099;102305;-75
2022/09/24 05:37:21;;;;;;;18.17;7.60;;;;;;;9.14;80.56;100590.06;124819;1099;110455;-74
2022/09/24 05:39:52;;;;;;;17.63;7.77;;;;;;;9.15;80.96;100594.48;124937;1099;102165;-75
2022/09/24 05:42:24;;;;;;;15.00;7.80;;;;;;;9.18;81.00;100605.09;124978;1099;102958;-75
2022/09/24 05:44:55;;;;;;;15.83;7.80;;;;;;;9.21;80.99;100601.69;124904;1099;104060;-74
2022/09/24 05:47:26;;;;;;;16.10;7.23;;;;;;;9.23;80.51;100600.94;124812;1099;102877;-75
2022/09/24 05:49:57;;;;;;;14.30;7.00;;;;;;;9.26;80.74;100601.06;124752;1099;104172;-74
2022/09/24 05:52:29;;;;;;;16.73;7.17;;;;;;;9.31;80.99;100599.52;124891;1099;104179;-74
2022/09/24 05:55:00;;;;;;;16.53;7.30;;;;;;;9.34;80.70;100604.89;124860;1099;104663;-74
2022/09/24 05:57:31;;;;;;;14.97;7.33;;;;;;;9.41;80.97;100613.01;124836;1099;104163;-74
2022/09/24 06:00:03;;;;;;;15.47;6.87;;;;;;;9.45;80.84;100610.58;124858;1099;104248;-75
2022/09/24 06:02:43;;;;;;;16.47;7.50;;;;;;;9.50;80.85;100614.28;124858;1099;104166;-74
2022/09/24 06:05:14;;;;;;;16.23;6.83;;;;;;;9.57;80.78;100604.06;124843;1098;104270;-75
2022/09/24 06:07:46;;;;;;;14.57;7.23;;;;;;;9.67;81.53;100606.23;124817;1099;103425;-75
2022/09/24 06:10:17;;;;;;;13.57;7.10;;;;;;;9.77;81.32;100610.12;124907;1096;102822;-75
2022/09/24 06:12:49;;;;;;;13.87;6.60;;;;;;;9.86;81.41;100614.03;124878;1099;104073;-74
2022/09/24 06:15:21;;;;;;;15.90;7.20;;;;;;;9.96;81.51;100615.28;124838;1099;104220;-75
2022/09/24 06:17:55;;;;;;;15.33;6.30;;;;;;;10.03;81.13;100622.54;124990;1098;104201;-75
2022/09/24 06:20:26;;;;;;;12.98;6.53;;;;;;;10.14;81.24;100616.84;124831;1099;104157;-75
2022/09/24 06:22:58;;;;;;;13.13;6.80;;;;;;;10.26;81.22;100631.31;124935;1099;104226;-75
2022/09/24 06:25:31;;;;;;;14.13;6.47;;;;;;;10.37;80.65;100623.90;124858;1099;104070;-74
2022/09/24 06:28:07;;;;;;;12.77;6.00;;;;;;;10.48;81.35;100623.42;124838;1099;102796;-74
2022/09/24 06:30:40;;;;;;;15.83;5.97;;;;;;;10.58;81.08;100626.45;124772;1099;104663;-75
2022/09/24 06:33:12;;;;;;;12.40;5.90;;;;;;;10.69;80.89;100628.57;124881;1099;104191;-75
2022/09/24 06:35:45;;;;;;;11.47;5.80;;;;;;;10.78;80.58;100629.83;124789;1099;104267;-75
2022/09/24 06:38:17;;;;;;;13.77;5.73;;;;;;;10.84;80.50;100621.27;124775;1099;104345;-75
2022/09/24 06:40:49;;;;;;;14.43;5.77;;;;;;;10.90;80.58;100623.23;124933;1099;102766;-75
2022/09/24 06:43:20;;;;;;;13.30;5.67;;;;;;;10.97;80.43;100622.63;124779;1099;104236;-75
2022/09/24 06:45:54;;;;;;;16.37;5.13;;;;;;;11.04;80.10;100629.86;124834;1099;104297;-74
2022/09/24 06:48:26;;;;;;;12.97;5.47;;;;;;;11.16;79.87;100632.05;124928;1099;104067;-75
2022/09/24 06:50:58;;;;;;;10.50;5.13;;;;;;;11.27;79.53;100630.67;124919;1099;104309;-75
2022/09/24 06:53:29;;;;;;;11.20;5.10;;;;;;;11.32;79.49;100633.47;124818;1098;104290;-75
2022/09/24 06:56:02;;;;;;;11.63;5.20;;;;;;;11.41;79.57;100631.16;124907;1099;104333;-76
2022/09/24 06:58:33;;;;;;;11.17;5.10;;;;;;;11.52;79.17;100626.27;124840;1099;103032;-74
2022/09/24 07:01:05;;;;;;;9.63;5.00;;;;;;;11.57;78.99;100632.56;124768;1099;104316;-75
2022/09/24 07:03:37;;;;;;;9.00;4.70;;;;;;;11.65;78.81;100624.94;124871;1099;104048;-75
2022/09/24 07:06:09;;;;;;;7.80;4.30;;;;;;;11.76;78.74;100641.07;124829;1099;104268;-75
2022/09/24 07:08:40;;;;;;;7.30;4.70;;;;;;;11.79;78.42;100631.53;124815;1099;102800;-75
2022/09/24 07:11:14;;;;;;;11.97;4.57;;;;;;;11.78;77.46;100635.03;124792;1099;102120;-75
2022/09/24 07:13:44;;;;;;;;;;;;;;;11.71;76.65;100635.66;124890;1099;104219;-74
2022/09/24 07:16:15;;;;;;;8.47;4.57;;;;;;;11.64;77.17;100637.20;124856;1099;104361;-75
2022/09/24 07:18:46;;;;;;;10.30;4.63;;;;;;;11.56;76.81;100643.03;124838;1099;104267;-75
2022/09/24 07:21:18;;;;;;;9.33;4.67;;;;;;;11.46;77.04;100640.08;124580;1099;104271;-75
2022/09/24 07:23:49;;;;;;;8.77;4.80;;;;;;;11.38;77.72;100644.19;124899;1099;102342;-75
2022/09/24 07:26:20;;;;;;;10.40;4.73;;;;;;;11.32;77.18;100649.23;124909;1099;104163;-75
2022/09/24 07:28:51;;;;;;;8.90;4.80;;;;;;;11.27;76.82;100640.30;124953;1099;104220;-74
2022/09/24 07:31:23;;;;;;;8.20;4.67;;;;;;;11.32;77.09;100647.48;124970;1099;104637;-75
2022/09/24 07:33:54;;;;;;;7.53;4.47;;;;;;;11.44;77.34;100638.27;124854;1099;102826;-75
2022/09/24 07:36:25;;;;;;;11.20;4.63;;;;;;;11.57;76.94;100650.97;124873;1099;104169;-75
2022/09/24 07:38:56;;;;;;;8.07;4.67;;;;;;;11.74;77.26;100638.39;124826;1098;104270;-75
2022/09/24 07:41:29;;;;;;;9.80;4.40;;;;;;;11.94;76.96;100651.34;124461;1099;101877;-75
2022/09/24 07:44:01;;;;;;;9.27;4.43;;;;;;;12.09;75.86;100650.92;124839;1099;104189;-75
2022/09/24 07:46:32;;;;;;;7.97;4.30;;;;;;;12.25;75.70;100647.03;124864;1099;104162;-76
2022/09/24 07:49:58;;;;;;;;;;;;;;;;;;;;;
2022/09/24 07:53:00;;;;;;;7.40;3.97;;;;;;;12.71;74.98;100648.44;124811;1099;104169;-74
2022/09/24 07:55:38;;;;;;;8.30;4.20;;;;;;;12.87;74.17;100647.13;124850;1099;104593;-75
2022/09/24 07:58:12;;;;;;;6.63;4.13;;;;;;;13.03;73.71;100645.84;124749;1100;104076;-75
2022/09/24 08:00:44;;;;;;;7.87;4.77;;;;;;;13.18;73.47;100643.61;124866;1099;104218;-75
2022/09/24 08:03:15;;;;;;;7.47;4.17;;;;;;;13.25;72.37;100647.33;124893;1099;104229;-75
2022/09/24 08:05:47;;;;;;;7.77;3.87;;;;;;;13.27;70.43;100650.88;124835;1099;104232;-75
2022/09/24 08:08:19;;;;;;;7.13;4.17;;;;;;;13.32;72.50;100638.71;124814;1099;104178;-75
2022/09/24 08:10:50;;;;;;;8.13;3.80;;;;;;;13.45;71.65;100647.89;124860;1099;104262;-75
2022/09/24 08:13:21;;;;;;;5.30;3.60;;;;;;;13.55;71.04;100641.11;124893;1099;104280;-75
2022/09/24 08:15:59;;;;;;;7.13;3.77;;;;;;;13.66;71.95;100644.91;124869;1099;102781;-76
2022/09/24 08:18:32;;;;;;;7.23;3.67;;;;;;;13.83;71.49;100642.69;124781;1099;104280;-75
2022/09/24 08:21:10;;;;;;;5.03;3.40;;;;;;;13.92;70.17;100648.20;124889;1099;104217;-75
2022/09/24 08:23:43;;;;;;;7.73;3.50;;;;;;;13.99;71.04;100644.86;124854;1099;102768;-75
2022/09/24 08:26:15;;;;;;;5.10;3.37;;;;;;;14.05;70.14;100635.30;124832;1099;104174;-75
2022/09/24 08:28:50;;;;;;;7.23;3.30;;;;;;;14.14;70.42;100633.76;124759;1098;104171;-75
2022/09/24 08:31:21;;;;;;;7.57;3.43;;;;;;;14.26;69.40;100632.25;124749;1099;104173;-75
2022/09/24 08:33:53;;;;;;;9.03;3.77;;;;;;;14.34;69.39;100628.06;124819;1099;104746;-76
2022/09/24 08:36:24;;;;;;;8.73;3.20;;;;;;;14.41;68.11;100631.72;124825;1099;104115;-75
2022/09/24 08:38:57;;;;;;;6.60;3.33;;;;;;;14.41;68.80;100627.31;124827;1098;104169;-76
2022/09/24 08:41:44;;;;;;;7.80;3.60;;;;;;;14.51;68.39;100621.39;124867;1099;104204;-76
2022/09/24 08:47:21;;;;;;;5.27;3.13;;;;;;;14.57;66.80;100628.56;124698;1099;104140;-75
2022/09/24 08:47:23;;;;;;;6.20;3.50;;;;;;;14.55;64.70;100624.98;124807;1099;104325;-76
2022/09/24 08:50:01;;;;;;;5.40;3.33;;;;;;;14.56;65.86;100621.48;124778;1099;104193;-76
2022/09/24 08:52:41;;;;;;;4.77;3.10;;;;;;;14.64;65.46;100625.21;124928;1098;104229;-75
2022/09/24 08:55:19;;;;;;;5.60;3.37;;;;;;;14.64;63.48;100632.25;124983;1098;104426;-76
2022/09/24 08:57:59;;;;;;;5.47;3.10;;;;;;;14.66;63.40;100622.60;124867;1098;104223;-76
2022/09/24 09:00:36;;;;;;;6.77;3.20;;;;;;;14.73;62.09;100621.88;124830;1099;104169;-75
2022/09/24 09:03:16;;;;;;;5.53;3.20;;;;;;;14.85;63.77;100621.22;124703;1099;104201;-76
2022/09/24 09:05:56;;;;;;;6.43;3.20;;;;;;;14.81;62.58;100625.56;124883;1099;102249;-77
2022/09/24 09:08:37;;;;;;;7.00;3.20;;;;;;;14.91;63.09;100616.97;124942;1099;102750;-76
2022/09/24 09:11:13;;;;;;;7.20;3.20;;;;;;;15.13;63.64;100629.70;124838;1099;104383;-75
2022/09/24 09:13:51;;;;;;;4.75;3.00;;;;;;;15.19;61.61;100630.73;124804;1099;104243;-75
2022/09/24 09:16:28;;;;;;;8.07;3.30;;;;;;;15.06;61.50;100631.34;124858;1099;104338;-76
2022/09/24 09:19:05;;;;;;;4.97;3.10;;;;;;;14.91;62.19;100623.98;124904;1099;104188;-75
2022/09/24 09:21:41;;;;;;;4.30;2.90;;;;;;;14.80;60.51;100625.53;124787;1099;104169;-76
2022/09/24 09:24:19;;;;;;;2.93;2.60;;;;;;;14.62;60.36;100626.06;124824;1099;102035;-76
2022/09/24 09:26:55;;;;;;;8.57;3.00;;;;;;;14.68;60.21;100616.50;124936;1099;104252;-77
2022/09/24 09:29:28;;;;;;;4.43;2.97;;;;;;;15.01;61.48;100622.44;124890;1098;104265;-75
2022/09/24 09:32:13;;;;;;;6.43;3.00;;;;;;;15.32;61.80;100618.62;124966;1099;104232;-76
2022/09/24 09:34:58;;;;;;;3.80;2.90;;;;;;;15.38;59.48;100617.81;124850;1099;104219;-76
2022/09/24 09:37:40;;;;;;;5.63;2.53;;;;;;;15.27;58.07;100622.94;124847;1098;104163;-76
2022/09/24 09:40:29;;;;;;;4.03;2.67;;;;;;;15.10;59.83;100628.78;124861;1099;104245;-76
2022/09/24 09:43:03;;;;;;;5.30;2.80;;;;;;;14.90;57.23;100632.80;124814;1099;104621;-75
2022/09/24 09:45:42;;;;;;;6.40;2.63;;;;;;;14.78;58.60;100629.91;124907;1099;104178;-75
2022/09/24 09:48:15;;;;;;;2.97;2.40;;;;;;;14.72;58.66;100639.49;124825;1099;104259;-76
2022/09/24 09:50:49;;;;;;;5.20;2.70;;;;;;;14.63;57.97;100627.82;124862;1099;104634;-75
2022/09/24 09:53:25;;;;;;;4.67;2.37;;;;;;;14.69;57.81;100633.23;124831;1099;104198;-76
2022/09/24 09:56:00;;;;;;;6.60;2.70;;;;;;;15.00;58.23;100625.94;124767;1099;102235;-74
2022/09/24 09:58:34;;;;;;;4.73;2.70;;;;;;;15.12;58.12;100627.94;124798;1099;104238;-75
2022/09/24 10:01:12;;;;;;;4.30;2.70;;;;;;;15.25;58.48;100622.00;124824;1098;104222;-76
2022/09/24 10:03:50;;;;;;;3.67;2.67;;;;;;;15.30;57.31;100630.02;124817;1099;102906;-76
2022/09/24 10:06:28;;;;;;;7.77;2.50;;;;;;;15.51;58.16;100630.41;124845;1099;103163;-74
2022/09/24 10:09:12;;;;;;;4.30;2.70;;;;;;;15.83;57.94;100618.62;124793;1099;104256;-75
2022/09/24 10:11:44;;;;;;;4.40;2.90;;;;;;;16.00;57.15;100627.70;124844;1099;104227;-76
2022/09/24 10:14:19;;;;;;;3.07;2.37;;;;;;;15.97;55.21;100627.66;124775;1099;104509;-75
2022/09/24 10:16:55;;;;;;;7.17;2.67;;;;;;;15.76;54.93;100655.52;124855;1098;104047;-75
2022/09/24 10:19:28;;;;;;;13.27;4.60;;;;;;;15.50;55.96;100646.25;124876;1099;104182;-75
2022/09/24 10:22:07;;;;;;;4.12;2.83;;;;;;;15.18;56.62;100642.16;124845;1099;104194;-75
2022/09/24 10:24:42;;;;;;;5.47;2.73;;;;;;;14.88;58.46;100650.34;124857;1099;102085;-76
2022/09/24 10:27:21;;;;;;;6.93;3.07;;;;;;;14.64;58.54;100653.38;124834;1099;104165;-75
2022/09/24 10:32:43;;;;;;;4.60;3.00;;;;;;;14.49;58.53;100656.53;124868;1099;104163;-75
2022/09/24 10:35:28;;;;;;;5.03;2.90;;;;;;;14.49;59.48;100651.25;124846;1099;104235;-75
2022/09/24 10:38:02;;;;;;;4.60;2.80;;;;;;;14.52;59.28;100653.95;124726;1099;104211;-75
2022/09/24 10:40:40;;;;;;;7.00;3.20;;;;;;;14.55;58.60;100656.66;124667;1099;101980;-75
2022/09/24 10:43:19;;;;;;;5.07;3.00;;;;;;;14.55;58.54;100656.66;124809;1099;102791;-75
2022/09/24 10:46:20;;;;;;;6.57;3.20;;;;;;;14.55;59.24;100667.23;124929;1099;104188;-76
2022/09/24 10:49:00;;;;;;;5.63;2.90;;;;;;;14.62;58.72;100661.27;124871;1099;104290;-76
2022/09/24 10:51:39;;;;;;;4.93;2.83;;;;;;;14.68;58.39;100668.45;124852;1099;102931;-75
2022/09/24 10:54:33;;;;;;;4.40;2.70;;;;;;;14.69;57.34;100670.20;124842;1099;104226;-75
2022/09/24 10:57:12;;;;;;;7.77;3.00;;;;;;;14.61;57.61;100683.24;124758;1099;102406;-75
2022/09/24 10:59:55;;;;;;;6.10;3.00;;;;;;;14.55;56.93;100685.71;124809;1099;102896;-75
2022/09/24 11:02:58;;;;;;;5.03;2.60;;;;;;;14.46;55.83;100691.70;124790;1099;104300;-75
2022/09/24 11:05:35;;;;;;;10.40;2.90;;;;;;;14.34;56.92;100686.13;124840;1099;104188;-75
2022/09/24 11:08:33;;;;;;;2.60;2.40;;;;;;;14.36;57.07;100687.93;124938;1099;104162;-75
2022/09/24 11:11:20;;;;;;;4.73;2.77;;;;;;;14.43;57.15;100685.43;124765;1098;104322;-76
2022/09/24 11:14:03;;;;;;;4.03;2.80;;;;;;;14.55;57.04;100690.99;124781;1099;104166;-75
2022/09/24 11:16:55;;;;;;;4.67;3.10;;;;;;;14.63;56.67;100680.64;124834;1099;103308;-75
2022/09/24 11:19:47;;;;;;;4.37;2.70;;;;;;;14.71;57.44;100685.24;124867;1099;104332;-75
2022/09/24 11:22:26;;;;;;;5.93;3.33;;;;;;;14.82;57.00;100681.92;124749;1099;101943;-75
2022/09/24 11:25:20;;;;;;;2.57;2.20;;;;;;;14.89;57.00;100681.20;124822;1099;104115;-76
2022/09/24 11:28:02;;;;;;;2.92;2.40;;;;;;;14.98;56.81;100683.16;124914;1099;104245;-76
2022/09/24 11:30:46;;;;;;;2.83;2.23;;;;;;;15.05;56.27;100687.69;124805;1099;104261;-76
2022/09/24 11:33:33;;;;;;;2.27;2.08;;;;;;;15.12;54.83;100679.03;124981;1099;104182;-75
2022/09/24 11:36:28;;;;;;;2.60;2.10;;;;;;;15.16;56.14;100674.69;124775;1099;104160;-75
2022/09/24 11:39:14;;;;;;;4.20;2.30;;;;;;;15.14;55.56;100673.78;124908;1099;102739;-76
2022/09/24 11:41:56;;;;;;;3.50;2.33;;;;;;;15.13;54.69;100677.27;124912;1099;104211;-75
2022/09/24 11:44:53;;;;;;;3.17;2.27;;;;;;;15.00;54.74;100687.59;124729;1099;104239;-76
2022/09/24 11:47:37;;;;;;;5.95;2.70;;;;;;;14.87;54.59;100677.64;124925;1099;102890;-75
2022/09/24 11:50:20;;;;;;;3.37;2.50;;;;;;;14.83;54.56;100681.07;124403;1099;103575;-75
2022/09/24 11:52:58;;;;;;;4.20;2.60;;;;;;;14.75;54.17;100672.98;124864;1098;104182;-75